GMMC/CAS METAR and TAF weather

Enter ICAO airport designator
Station Type Date Time Source
GMMC METAR 2019/04/24 19:00 UTC NOAA

GMMC 241900Z 28012KT 9999 FEW016 18/11 Q1016


Station Type Date Time Source
GMMC Decoded METAR 2019/04/24 19:00 UTC NOAA

Casablanca, Morocco (GMMC) 33-34N 007-40W 62M
Apr 24, 2019 - 03:00 PM EDT / 2019.04.24 1900 UTC
Wind: from the W (280 degrees) at 14 MPH (12 KT):0
Visibility: greater than 7 mile(s):0
Sky conditions: mostly clear
Temperature: 64 F (18 C)
Dew Point: 51 F (11 C)
Relative Humidity: 63%
Pressure (altimeter): 30.00 in. Hg (1016 hPa)
ob: GMMC 241900Z 28012KT 9999 FEW016 18/11 Q1016
cycle: 19

Station Type Date Time Source
GMMC TAF 2016/05/22 17:00 UTC NOAA

FTMC31 GMMC 221700 RRA TAF LPPT 221700Z 2218/2324 34013KT CAVOK
BECMG 2221/2224 34007KT
BECMG 2310/2312 VRB03KT

Example: see airport list